createdAt,value
2022-12-16T00:00:47.726Z,18.45
2022-12-16T00:03:15.465Z,21.20
2022-12-16T00:05:44.714Z,18.50
2022-12-16T00:08:13.791Z,18.92
2022-12-16T00:10:54.792Z,20.70
2022-12-16T00:13:22.702Z,18.35
2022-12-16T00:15:50.368Z,20.25
2022-12-16T00:18:19.979Z,19.67
2022-12-16T00:20:48.697Z,21.90
2022-12-16T00:23:18.312Z,21.48
2022-12-16T00:25:47.032Z,21.23
2022-12-16T00:28:16.933Z,21.65
2022-12-16T00:30:45.615Z,21.60
2022-12-16T00:33:13.544Z,19.88
2022-12-16T00:35:44.624Z,21.35
2022-12-16T00:38:13.773Z,20.70
2022-12-16T00:40:43.116Z,21.80
2022-12-16T00:43:11.134Z,19.90
2022-12-16T00:45:39.324Z,21.10
2022-12-16T00:48:08.203Z,21.15
2022-12-16T00:50:36.470Z,21.92
2022-12-16T00:53:04.733Z,22.35
2022-12-16T00:55:32.480Z,22.45
2022-12-16T00:58:01.475Z,20.80
2022-12-16T01:00:29.628Z,22.10
2022-12-16T01:02:57.442Z,21.65
2022-12-16T01:05:26.945Z,22.23
2022-12-16T01:07:55.252Z,22.70
2022-12-16T01:10:23.309Z,23.13
2022-12-16T01:12:51.414Z,23.95
2022-12-16T01:15:20.722Z,23.52
2022-12-16T01:17:48.386Z,22.60
2022-12-16T01:20:16.024Z,24.48
2022-12-16T01:22:43.708Z,21.50
2022-12-16T01:25:12.873Z,20.88
2022-12-16T01:27:40.799Z,23.00
2022-12-16T01:30:10.092Z,22.48
2022-12-16T01:32:39.191Z,21.77
2022-12-16T01:35:18.024Z,21.80
2022-12-16T01:37:51.229Z,20.10
2022-12-16T01:40:22.061Z,20.27
2022-12-16T01:42:49.859Z,21.25
2022-12-16T01:45:38.678Z,20.65
2022-12-16T01:48:21.098Z,20.13
2022-12-16T01:50:50.254Z,20.85
2022-12-16T01:53:18.033Z,20.77
2022-12-16T01:55:51.553Z,22.02
2022-12-16T01:58:23.447Z,20.70
2022-12-16T02:00:51.407Z,20.17
2022-12-16T02:03:21.109Z,21.27
2022-12-16T02:05:50.204Z,20.00
2022-12-16T02:08:19.338Z,20.92
2022-12-16T02:10:59.449Z,18.55
2022-12-16T02:13:40.125Z,19.70
2022-12-16T02:16:17.425Z,21.20
2022-12-16T02:18:55.501Z,19.25
2022-12-16T02:21:40.484Z,19.85
2022-12-16T02:24:48.195Z,20.57
2022-12-16T02:27:46.901Z,19.73
2022-12-16T02:30:42.000Z,20.33
2022-12-16T02:33:22.207Z,21.10
2022-12-16T02:35:56.617Z,22.45
2022-12-16T02:38:31.760Z,21.85
2022-12-16T02:41:04.312Z,22.58
2022-12-16T02:43:51.465Z,22.85
2022-12-16T02:46:24.884Z,22.17
2022-12-16T02:48:52.728Z,20.90
2022-12-16T02:51:21.278Z,22.40
2022-12-16T02:53:51.463Z,20.52
2022-12-16T02:56:30.386Z,20.55
2022-12-16T02:59:11.652Z,22.23
2022-12-16T03:01:49.194Z,19.70
2022-12-16T03:04:21.931Z,20.45
2022-12-16T03:06:52.365Z,21.08
2022-12-16T03:09:25.214Z,21.50
2022-12-16T03:11:55.384Z,20.42
2022-12-16T03:14:26.585Z,21.40
2022-12-16T03:16:56.623Z,21.77
2022-12-16T03:19:26.006Z,20.35
2022-12-16T03:22:00.974Z,22.17
2022-12-16T03:24:29.785Z,21.40
2022-12-16T03:27:07.162Z,20.25
2022-12-16T03:29:41.736Z,21.85
2022-12-16T03:32:15.452Z,21.38
2022-12-16T03:34:49.437Z,23.65
2022-12-16T03:37:17.273Z,22.42
2022-12-16T03:39:49.716Z,23.92
2022-12-16T03:42:18.030Z,24.50
2022-12-16T03:44:47.352Z,21.80
2022-12-16T03:47:23.057Z,24.60
2022-12-16T03:49:51.555Z,24.90
2022-12-16T03:52:19.206Z,25.08
2022-12-16T03:54:46.884Z,25.08
2022-12-16T03:57:15.672Z,24.42
2022-12-16T03:59:43.641Z,25.35
2022-12-16T04:02:11.647Z,25.95
2022-12-16T04:04:40.787Z,28.85
2022-12-16T04:07:24.706Z,40.47
2022-12-16T04:09:53.502Z,35.28
2022-12-16T04:12:39.044Z,32.60
2022-12-16T04:15:33.724Z,36.30
2022-12-16T04:18:18.726Z,44.17
2022-12-16T04:21:10.801Z,46.70
2022-12-16T04:24:05.493Z,49.30
2022-12-16T04:26:53.153Z,39.55
2022-12-16T04:29:21.309Z,34.95
2022-12-16T04:31:49.137Z,39.17
2022-12-16T04:34:29.324Z,49.15
2022-12-16T04:37:18.015Z,53.33
2022-12-16T04:40:12.253Z,42.03
2022-12-16T04:42:57.500Z,46.67
2022-12-16T04:45:42.876Z,50.90
2022-12-16T04:48:28.144Z,54.35
2022-12-16T04:51:13.483Z,63.90
2022-12-16T04:53:59.890Z,62.67
2022-12-16T04:56:45.306Z,55.28
2022-12-16T04:59:30.504Z,48.90
2022-12-16T05:02:16.040Z,36.42
2022-12-16T05:05:01.201Z,32.70
2022-12-16T05:07:46.530Z,34.92
2022-12-16T05:10:33.001Z,33.53
2022-12-16T05:13:18.178Z,34.05
2022-12-16T05:16:03.568Z,31.58
2022-12-16T05:18:48.970Z,33.05
2022-12-16T05:21:34.280Z,33.15
2022-12-16T05:24:19.587Z,34.75
2022-12-16T05:27:20.582Z,34.70
2022-12-16T05:30:17.029Z,33.28
2022-12-16T05:33:13.912Z,34.30
2022-12-16T05:35:58.921Z,34.38
2022-12-16T05:38:44.242Z,36.10
2022-12-16T05:41:29.541Z,34.08
2022-12-16T05:44:16.110Z,36.15
2022-12-16T05:47:01.714Z,34.80
2022-12-16T05:49:46.874Z,36.13
2022-12-16T05:52:32.095Z,36.05
2022-12-16T05:55:17.450Z,37.13
2022-12-16T05:58:02.707Z,36.45
2022-12-16T06:00:49.311Z,37.63
2022-12-16T06:03:34.972Z,36.70
2022-12-16T06:06:20.255Z,34.95
2022-12-16T06:09:05.534Z,38.80
2022-12-16T06:11:50.766Z,37.78
2022-12-16T06:14:36.046Z,38.13
2022-12-16T06:17:22.740Z,40.28
2022-12-16T06:20:08.054Z,37.08
2022-12-16T06:22:53.448Z,38.60
2022-12-16T06:25:38.661Z,39.60
2022-12-16T06:28:24.016Z,38.50
2022-12-16T06:31:09.236Z,38.47
2022-12-16T06:33:55.870Z,40.50
2022-12-16T06:36:41.334Z,39.67
2022-12-16T06:39:26.501Z,41.92
2022-12-16T06:42:11.976Z,40.67
2022-12-16T06:44:57.253Z,38.97
2022-12-16T06:47:42.578Z,41.28
2022-12-16T06:50:25.666Z,41.63
2022-12-16T06:53:10.584Z,40.90
2022-12-16T06:55:55.941Z,45.78
2022-12-16T06:58:43.449Z,43.25
2022-12-16T07:01:28.655Z,42.35
2022-12-16T07:04:13.724Z,41.80
2022-12-16T07:07:00.305Z,43.03
2022-12-16T07:09:45.710Z,42.22
2022-12-16T07:12:30.924Z,44.25
2022-12-16T07:15:16.146Z,45.25
2022-12-16T07:18:03.445Z,46.42
2022-12-16T07:20:48.737Z,45.55
2022-12-16T07:23:35.956Z,46.63
2022-12-16T07:26:21.290Z,44.70
2022-12-16T07:29:06.587Z,45.70
2022-12-16T07:31:51.040Z,45.53
2022-12-16T07:34:40.800Z,47.88
2022-12-16T07:37:28.282Z,45.55
2022-12-16T07:40:14.903Z,45.28
2022-12-16T07:43:00.242Z,47.33
2022-12-16T07:45:46.178Z,49.13
2022-12-16T07:48:31.552Z,46.67
2022-12-16T07:51:16.732Z,47.13
2022-12-16T07:54:02.097Z,45.70
2022-12-16T07:56:47.863Z,46.70
2022-12-16T08:02:26.125Z,48.28
2022-12-16T08:05:11.662Z,44.03
2022-12-16T08:07:58.329Z,49.30
2022-12-16T08:10:43.421Z,45.45
2022-12-16T08:13:44.402Z,45.97
2022-12-16T08:16:29.447Z,46.47
2022-12-16T08:19:15.160Z,42.65
2022-12-16T08:22:00.600Z,44.47
2022-12-16T08:25:00.453Z,44.22
2022-12-16T08:27:45.698Z,42.00
2022-12-16T08:30:32.496Z,43.70
2022-12-16T08:33:19.514Z,41.67
2022-12-16T08:36:05.293Z,42.97
2022-12-16T08:38:50.632Z,42.70
2022-12-16T08:44:21.388Z,42.35
2022-12-16T08:47:08.265Z,43.00
2022-12-16T08:50:05.645Z,42.65
2022-12-16T08:52:50.631Z,40.95
2022-12-16T08:55:35.832Z,40.53
2022-12-16T08:58:21.117Z,40.88
2022-12-16T09:01:07.691Z,39.05
2022-12-16T09:03:54.675Z,41.05
2022-12-16T09:06:40.941Z,40.47
2022-12-16T09:09:26.370Z,43.65
2022-12-16T09:12:20.112Z,43.85
2022-12-16T09:15:05.348Z,39.50
2022-12-16T09:17:50.702Z,38.25
2022-12-16T09:23:23.122Z,37.92
2022-12-16T09:26:08.442Z,36.47
2022-12-16T09:31:41.527Z,35.88
2022-12-16T09:34:26.719Z,37.05
2022-12-16T09:37:13.467Z,37.47
2022-12-16T09:39:58.723Z,38.88
2022-12-16T09:42:55.498Z,38.10
2022-12-16T09:45:51.073Z,38.05
2022-12-16T09:48:45.944Z,35.78
2022-12-16T09:51:32.836Z,35.50
2022-12-16T09:54:21.512Z,35.83
2022-12-16T09:57:07.232Z,36.85
2022-12-16T09:59:56.005Z,37.78
2022-12-16T10:02:43.556Z,39.03
2022-12-16T10:05:31.755Z,37.55
2022-12-16T10:08:25.248Z,41.08
2022-12-16T10:11:19.122Z,40.10
2022-12-16T10:14:19.416Z,36.67
2022-12-16T10:17:11.051Z,36.97
2022-12-16T10:20:09.506Z,37.30
2022-12-16T10:23:01.822Z,38.67
2022-12-16T10:25:51.722Z,37.38
2022-12-16T10:28:53.904Z,37.55
2022-12-16T10:31:40.914Z,36.20
2022-12-16T10:34:32.074Z,38.53
2022-12-16T10:37:26.360Z,39.60
2022-12-16T10:40:17.068Z,39.83
2022-12-16T10:43:08.334Z,37.63
2022-12-16T10:45:59.030Z,38.83
2022-12-16T10:48:55.127Z,40.33
2022-12-16T10:51:43.062Z,38.63
2022-12-16T10:54:43.045Z,40.65
2022-12-16T10:57:33.662Z,40.10
2022-12-16T11:00:31.692Z,38.90
2022-12-16T11:03:35.754Z,39.63
2022-12-16T11:06:22.085Z,38.42
2022-12-16T11:09:07.489Z,39.03
2022-12-16T11:11:52.700Z,40.15
2022-12-16T11:15:05.621Z,41.15
2022-12-16T11:17:48.191Z,38.67
2022-12-16T11:20:37.654Z,39.88
2022-12-16T11:23:37.568Z,42.75
2022-12-16T11:26:27.745Z,41.10
2022-12-16T11:29:24.563Z,41.83
2022-12-16T11:32:16.046Z,43.20
2022-12-16T11:35:04.928Z,69.95
2022-12-16T11:37:53.984Z,99.00
2022-12-16T11:40:40.350Z,55.42
2022-12-16T11:43:27.566Z,45.95
2022-12-16T11:46:13.946Z,49.75
2022-12-16T11:49:02.532Z,42.88
2022-12-16T11:51:51.377Z,43.42
2022-12-16T11:54:57.864Z,44.42
2022-12-16T11:57:46.346Z,39.65
2022-12-16T12:00:34.531Z,41.67
2022-12-16T12:03:24.817Z,41.08
2022-12-16T12:06:23.077Z,40.08
2022-12-16T12:09:17.599Z,39.67
2022-12-16T12:12:11.250Z,41.70
2022-12-16T12:15:05.578Z,41.08
2022-12-16T12:17:59.389Z,41.40
2022-12-16T12:21:00.258Z,43.60
2022-12-16T12:23:58.678Z,42.67
2022-12-16T12:26:49.499Z,43.42
2022-12-16T12:29:50.515Z,42.67
2022-12-16T12:32:38.683Z,43.78
2022-12-16T12:35:37.074Z,44.85
2022-12-16T12:38:30.018Z,41.30
2022-12-16T12:41:25.193Z,42.83
2022-12-16T12:44:18.237Z,41.60
2022-12-16T12:47:11.733Z,44.00
2022-12-16T12:50:02.433Z,43.42
2022-12-16T12:53:17.112Z,40.88
2022-12-16T12:56:07.606Z,41.45
2022-12-16T12:58:56.581Z,40.70
2022-12-16T13:01:48.187Z,37.83
2022-12-16T13:04:38.502Z,38.88
2022-12-16T13:07:25.309Z,39.63
2022-12-16T13:10:46.082Z,40.03
2022-12-16T13:13:50.230Z,41.00
2022-12-16T13:17:10.824Z,40.55
2022-12-16T13:20:11.025Z,39.10
2022-12-16T13:23:05.314Z,41.47
2022-12-16T13:26:08.311Z,41.05
2022-12-16T13:28:56.139Z,39.63
2022-12-16T13:31:43.032Z,39.78
2022-12-16T13:34:43.960Z,40.35
2022-12-16T13:37:44.539Z,42.28
2022-12-16T13:40:36.442Z,38.08
2022-12-16T13:43:23.813Z,40.03
2022-12-16T13:46:34.381Z,41.03
2022-12-16T13:49:55.449Z,38.40
2022-12-16T13:52:54.374Z,39.13
2022-12-16T13:55:46.715Z,40.05
2022-12-16T13:58:40.235Z,40.95
2022-12-16T14:01:30.318Z,41.65
2022-12-16T14:04:18.267Z,42.03
2022-12-16T14:07:04.445Z,40.72
2022-12-16T14:09:54.487Z,42.25
2022-12-16T14:13:02.116Z,41.95
2022-12-16T14:15:53.579Z,39.63
2022-12-16T14:18:50.060Z,36.72
2022-12-16T14:21:43.977Z,37.70
2022-12-16T14:24:39.627Z,38.08
2022-12-16T14:27:35.018Z,40.15
2022-12-16T14:30:21.736Z,38.80
2022-12-16T14:33:10.000Z,37.55
2022-12-16T14:35:55.352Z,40.30
2022-12-16T14:38:44.023Z,38.58
2022-12-16T14:41:30.790Z,38.33
2022-12-16T14:44:26.242Z,36.97
2022-12-16T14:47:11.448Z,35.78
2022-12-16T14:50:08.368Z,37.65
2022-12-16T14:52:53.490Z,39.72
2022-12-16T14:55:45.729Z,37.53
2022-12-16T14:58:32.693Z,37.78
2022-12-16T15:01:24.096Z,40.63
2022-12-16T15:04:09.718Z,39.00
2022-12-16T15:09:46.830Z,36.55
2022-12-16T15:12:34.375Z,38.55
2022-12-16T15:15:23.742Z,39.45
2022-12-16T15:18:13.726Z,35.78
2022-12-16T15:21:09.890Z,38.40
2022-12-16T15:26:44.390Z,36.33
2022-12-16T15:29:49.156Z,36.42
2022-12-16T15:32:48.320Z,36.67
2022-12-16T15:35:45.981Z,40.08
2022-12-16T15:38:42.005Z,37.53
2022-12-16T15:41:39.355Z,36.47
2022-12-16T15:44:24.871Z,34.70
2022-12-16T15:47:10.483Z,33.78
2022-12-16T15:50:03.502Z,34.53
2022-12-16T15:52:54.253Z,34.42
2022-12-16T15:56:04.323Z,34.33
2022-12-16T15:58:52.469Z,29.27
2022-12-16T16:01:40.193Z,28.55
2022-12-16T16:04:37.495Z,30.33
2022-12-16T16:07:22.694Z,29.00
2022-12-16T16:10:09.418Z,29.48
2022-12-16T16:12:55.102Z,27.42
2022-12-16T16:18:28.518Z,28.52
2022-12-16T16:21:13.765Z,28.10
2022-12-16T16:23:59.204Z,30.25
2022-12-16T16:26:47.113Z,30.95
2022-12-16T16:29:32.401Z,32.22
2022-12-16T16:32:17.785Z,32.40
2022-12-16T16:35:03.079Z,30.90
2022-12-16T16:37:48.357Z,30.90
2022-12-16T16:40:47.486Z,33.50
2022-12-16T16:43:30.925Z,32.10
2022-12-16T16:46:16.623Z,30.38
2022-12-16T16:49:01.672Z,31.80
2022-12-16T16:51:47.192Z,32.17
2022-12-16T16:54:32.450Z,31.13
2022-12-16T16:57:34.142Z,28.30
2022-12-16T17:00:21.187Z,29.08
2022-12-16T17:03:06.714Z,31.00
2022-12-16T17:06:00.420Z,31.20
2022-12-16T17:08:45.836Z,32.40
2022-12-16T17:11:36.883Z,30.85
2022-12-16T17:14:22.744Z,31.83
2022-12-16T17:17:09.282Z,32.40
2022-12-16T17:19:54.595Z,33.10
2022-12-16T17:22:39.973Z,32.78
2022-12-16T17:25:26.249Z,33.78
2022-12-16T17:28:11.538Z,32.00
2022-12-16T17:30:56.857Z,32.40
2022-12-16T17:33:43.711Z,34.60
2022-12-16T17:36:32.066Z,34.28
2022-12-16T17:39:17.503Z,32.70
2022-12-16T17:42:03.454Z,34.17
2022-12-16T17:44:48.563Z,34.08
2022-12-16T17:47:34.292Z,33.55
2022-12-16T17:53:06.208Z,34.10
2022-12-16T17:55:52.492Z,33.60
2022-12-16T17:58:37.889Z,33.13
2022-12-16T18:01:24.862Z,35.90
2022-12-16T18:04:10.197Z,34.47
2022-12-16T18:06:56.630Z,35.05
2022-12-16T18:09:41.962Z,35.60
2022-12-16T18:12:27.125Z,33.72
2022-12-16T18:15:12.490Z,37.85
2022-12-16T18:17:57.915Z,35.83
2022-12-16T18:20:43.143Z,35.95
2022-12-16T18:23:29.906Z,35.33
2022-12-16T18:26:16.867Z,33.53
2022-12-16T18:29:02.263Z,33.88
2022-12-16T18:31:47.633Z,35.13
2022-12-16T18:34:33.252Z,36.00
2022-12-16T18:37:18.674Z,34.00
2022-12-16T18:40:07.574Z,35.38
2022-12-16T18:42:52.760Z,35.65
2022-12-16T18:45:38.329Z,34.22
2022-12-16T18:48:23.948Z,34.92
2022-12-16T18:51:13.394Z,37.42
2022-12-16T18:53:58.664Z,36.33
2022-12-16T18:56:45.545Z,34.38
2022-12-16T18:59:31.205Z,34.38
2022-12-16T19:02:16.674Z,34.13
2022-12-16T19:05:01.701Z,34.03
2022-12-16T19:07:46.914Z,33.40
2022-12-16T19:10:32.371Z,30.40
2022-12-16T19:13:19.001Z,30.00
2022-12-16T19:16:11.795Z,29.65
2022-12-16T19:18:57.225Z,30.85
2022-12-16T19:21:46.908Z,31.65
2022-12-16T19:24:35.242Z,32.03
2022-12-16T19:27:20.515Z,30.05
2022-12-16T19:30:15.427Z,29.05
2022-12-16T19:33:00.807Z,28.15
2022-12-16T19:35:46.244Z,28.63
2022-12-16T19:38:37.302Z,30.38
2022-12-16T19:41:22.648Z,30.65
2022-12-16T19:44:08.081Z,32.90
2022-12-16T19:46:56.196Z,32.20
2022-12-16T19:49:44.379Z,32.15
2022-12-16T19:52:30.455Z,29.05
2022-12-16T19:55:17.611Z,32.30
2022-12-16T19:58:03.204Z,32.10
2022-12-16T20:00:48.708Z,31.65
2022-12-16T20:03:36.233Z,33.63
2022-12-16T20:06:23.142Z,31.73
2022-12-16T20:09:08.513Z,32.83
2022-12-16T20:11:54.755Z,32.70
2022-12-16T20:14:41.404Z,36.08
2022-12-16T20:17:23.658Z,36.15
2022-12-16T20:20:10.252Z,32.40
2022-12-16T20:22:56.232Z,34.35
2022-12-16T20:25:41.356Z,75.53
2022-12-16T20:28:26.725Z,57.88
2022-12-16T20:31:11.933Z,41.70
2022-12-16T20:37:05.376Z,42.88
2022-12-16T20:42:56.305Z,42.17
2022-12-16T20:45:43.262Z,60.40
2022-12-16T20:48:32.881Z,44.90
2022-12-16T20:54:30.860Z,35.83
2022-12-16T20:57:15.996Z,35.92
2022-12-16T21:00:01.425Z,34.95
2022-12-16T21:02:46.665Z,36.75
2022-12-16T21:05:32.277Z,37.28
2022-12-16T21:08:17.595Z,36.08
2022-12-16T21:11:04.096Z,37.35
2022-12-16T21:13:49.778Z,37.63
2022-12-16T21:16:35.270Z,35.75
2022-12-16T21:19:20.563Z,35.20
2022-12-16T21:22:05.888Z,34.95
2022-12-16T21:24:51.782Z,33.58
2022-12-16T21:27:38.243Z,33.53
2022-12-16T21:30:24.801Z,33.13
2022-12-16T21:33:10.171Z,36.83
2022-12-16T21:39:06.381Z,33.45
2022-12-16T21:41:51.678Z,34.47
2022-12-16T21:44:38.140Z,33.47
2022-12-16T21:47:23.491Z,35.22
2022-12-16T21:50:08.991Z,31.35
2022-12-16T21:52:54.789Z,33.53
2022-12-16T21:55:41.491Z,32.83
2022-12-16T21:58:28.883Z,34.88
2022-12-16T22:01:16.905Z,35.03
2022-12-16T22:04:02.192Z,36.25
2022-12-16T22:06:49.095Z,35.80
2022-12-16T22:09:58.329Z,32.83
2022-12-16T22:12:43.628Z,35.28
2022-12-16T22:15:29.104Z,34.03
2022-12-16T22:18:15.440Z,36.80
2022-12-16T22:21:00.919Z,36.70
2022-12-16T22:23:47.183Z,35.65
2022-12-16T22:26:32.412Z,34.92
2022-12-16T22:29:17.783Z,34.60
2022-12-16T22:32:03.075Z,35.70
2022-12-16T22:34:49.791Z,36.30
2022-12-16T22:36:21.245Z,92.30
2022-12-16T22:37:35.121Z,34.00
2022-12-16T22:40:20.384Z,33.85
2022-12-16T22:43:06.453Z,34.65
2022-12-16T22:45:54.068Z,32.60
2022-12-16T22:48:41.569Z,32.78
2022-12-16T22:51:30.137Z,31.30
2022-12-16T22:54:18.598Z,31.88
2022-12-16T23:03:20.983Z,33.50
2022-12-16T23:06:06.702Z,32.08
2022-12-16T23:11:39.694Z,32.17
2022-12-16T23:14:42.981Z,32.20
2022-12-16T23:17:28.929Z,33.08
2022-12-16T23:23:01.004Z,33.97
2022-12-16T23:25:46.312Z,34.20
2022-12-16T23:28:33.446Z,32.05
2022-12-16T23:31:18.893Z,31.63
2022-12-16T23:34:00.492Z,31.65
2022-12-16T23:36:47.041Z,31.60
2022-12-16T23:39:35.402Z,30.10
2022-12-16T23:42:20.656Z,30.17
2022-12-16T23:45:05.905Z,31.50
2022-12-16T23:47:51.352Z,30.30
2022-12-16T23:50:37.330Z,29.13
2022-12-16T23:53:25.301Z,31.10
2022-12-16T23:56:13.007Z,29.80
2022-12-16T23:58:58.360Z,30.38
